Terminal Aerodrome Forecast
Issued by NWS Honolulu, HI

Home | Current Version | Previous Version | Text Only | Print | Product List | Glossary On
Versions: 1 2 3 4 5 6 7 8 9 10 11 12 13 14 15 16 17 18 19 20 21 22 23 24 25 26 27 28 29 30 31 32 33 34 35 36 37 38 39 40 41 42 43 44 45 46 47 48 49 50
000
FTPA31 PHFO 301739
TAFHNL
TAF
PHNL 301739Z 3018/0124 VRB06KT P6SM -RA FEW020 BKN070 OVC100
     FM302000 12008KT P6SM -RA FEW025 BKN070 OVC120
     FM010000 13011KT P6SM VCSH FEW030 BKN080
     FM010500 VRB06KT P6SM VCSH SCT025 BKN045=

USA.gov is the U.S. government's official web portal to all federal, state and local government web resources and services.